Time;durP1;ratioP1;P1;durP2;ratioP2;P2;SDS_P1;SDS_P2;PMS_P1;PMS_P2;Temp;Humidity;BMP_temperature;BMP_pressure;BME280_temperature;BME280_humidity;BME280_pressure;Samples;Min_cycle;Max_cycle;Signal;HPM_P1;HPM_P2
2021/12/17 00:04:36;;;;;;;1.88;0.77;;;2.80;99.90;;;;;;5061665;28;20511;-65
2021/12/17 00:07:10;;;;;;;;;;;2.80;99.90;;;;;;5053322;28;20035;-65
2021/12/17 00:09:39;;;;;;;1.80;0.75;;;2.80;99.90;;;;;;5052820;28;19950;-65
2021/12/17 00:12:09;;;;;;;1.63;0.70;;;2.70;99.90;;;;;;5051446;28;20025;-65
2021/12/17 00:14:37;;;;;;;1.73;0.68;;;2.70;99.90;;;;;;5052917;28;20057;-65
2021/12/17 00:17:07;;;;;;;0.80;0.60;;;2.60;99.90;;;;;;5052594;28;20496;-65
2021/12/17 00:46:34;;;;;;;3.15;0.82;;;2.60;99.90;;;;;;5052200;28;20039;-66
2021/12/17 00:49:46;;;;;;;;;;;2.70;99.90;;;;;;5052872;28;20032;-66
2021/12/17 00:52:12;;;;;;;0.57;0.55;;;2.70;99.90;;;;;;5052207;28;19905;-66
2021/12/17 00:54:40;;;;;;;2.35;0.77;;;2.70;99.90;;;;;;5052000;28;20017;-66
2021/12/17 00:57:26;;;;;;;2.40;0.80;;;2.70;99.90;;;;;;5051752;28;20571;-65
2021/12/17 00:59:53;;;;;;;0.65;0.65;;;2.70;99.90;;;;;;5051124;28;20021;-66
2021/12/17 01:02:30;;;;;;;1.83;0.70;;;2.60;99.90;;;;;;5052190;28;20060;-66
2021/12/17 01:05:00;;;;;;;1.27;0.90;;;2.60;99.90;;;;;;5051657;28;20040;-66
2021/12/17 01:07:29;;;;;;;1.13;0.70;;;2.70;99.90;;;;;;5052428;28;20166;-66
2021/12/17 01:09:56;;;;;;;6.82;0.75;;;2.60;99.90;;;;;;5051665;28;20036;-65
2021/12/17 01:12:24;;;;;;;3.55;0.70;;;2.60;99.90;;;;;;5051969;28;20106;-65
2021/12/17 01:14:50;;;;;;;1.15;0.55;;;2.70;99.90;;;;;;5052082;28;20029;-65
2021/12/17 01:17:19;;;;;;;1.70;0.90;;;2.60;99.90;;;;;;5051933;28;20405;-65
2021/12/17 01:25:36;;;;;;;2.70;1.00;;;2.60;99.90;;;;;;5051941;28;20032;-65
2021/12/17 01:36:17;;;;;;;0.70;0.70;;;2.60;99.90;;;;;;5051660;28;20063;-65
2021/12/17 01:44:14;;;;;;;1.98;0.70;;;2.60;99.90;;;;;;5051529;28;20570;-67
2021/12/17 01:46:42;;;;;;;5.13;0.80;;;2.60;99.90;;;;;;5051741;28;20029;-66
2021/12/17 02:00:07;;;;;;;1.90;0.73;;;2.60;99.90;;;;;;5059987;28;20037;-66
2021/12/17 02:02:40;;;;;;;1.80;0.70;;;2.50;99.90;;;;;;5051676;28;20117;-66
2021/12/17 02:05:07;;;;;;;4.57;1.00;;;2.60;99.90;;;;;;5051108;28;20043;-66
2021/12/17 02:07:32;;;;;;;3.97;0.90;;;2.50;99.90;;;;;;5050144;28;20032;-66
2021/12/17 02:55:30;;;;;;;2.05;0.80;;;2.50;99.90;;;;;;5053744;28;20037;-66
2021/12/17 02:57:57;;;;;;;1.90;0.80;;;2.50;99.90;;;;;;5054244;28;20029;-66
2021/12/17 03:00:23;;;;;;;2.25;0.90;;;2.50;99.90;;;;;;5052940;28;20024;-65
2021/12/17 03:02:50;;;;;;;2.30;0.90;;;2.50;99.90;;;;;;5054443;28;20029;-65
2021/12/17 03:05:16;;;;;;;2.88;0.90;;;2.50;99.90;;;;;;5054170;28;20037;-66
2021/12/17 03:07:45;;;;;;;2.10;0.88;;;2.50;99.90;;;;;;5053855;28;20603;-66
2021/12/17 03:10:12;;;;;;;2.13;0.88;;;2.50;99.90;;;;;;5053879;28;20067;-66
2021/12/17 03:12:50;;;;;;;1.27;0.88;;;2.50;99.90;;;;;;5054061;28;20295;-66
2021/12/17 03:15:34;;;;;;;3.92;0.82;;;2.40;99.90;;;;;;5054213;28;20040;-66
2021/12/17 03:23:40;;;;;;;1.40;0.73;;;2.40;99.90;;;;;;5053606;28;20048;-66
2021/12/17 03:26:37;;;;;;;1.85;0.88;;;2.40;99.90;;;;;;5053817;28;20033;-66
2021/12/17 03:29:06;;;;;;;2.47;0.73;;;2.40;99.90;;;;;;5053323;28;20029;-66
2021/12/17 03:31:33;;;;;;;2.30;0.70;;;2.40;99.90;;;;;;5053283;28;20539;-66
2021/12/17 03:34:16;;;;;;;4.85;0.93;;;2.30;99.90;;;;;;5053799;28;20029;-65
2021/12/17 03:36:42;;;;;;;2.08;0.90;;;2.40;99.90;;;;;;5053529;28;20033;-66
2021/12/17 03:39:07;;;;;;;3.70;0.82;;;2.30;99.90;;;;;;5053780;28;20478;-65
2021/12/17 03:41:38;;;;;;;1.15;0.82;;;2.40;99.90;;;;;;5053542;28;20544;-65
2021/12/17 03:44:06;;;;;;;2.20;0.98;;;2.30;99.90;;;;;;5053369;28;20045;-65
2021/12/17 03:46:32;;;;;;;2.65;0.90;;;2.30;99.90;;;;;;5053332;28;20067;-65
2021/12/17 03:48:58;;;;;;;6.13;1.02;;;2.30;99.90;;;;;;5052021;28;20017;-65
2021/12/17 03:51:24;;;;;;;3.03;0.85;;;2.30;99.90;;;;;;5052832;28;20040;-65
2021/12/17 03:53:53;;;;;;;3.13;0.90;;;2.30;99.90;;;;;;5052667;28;20029;-66
2021/12/17 03:56:19;;;;;;;2.28;1.02;;;2.30;99.90;;;;;;5052841;28;20053;-65
2021/12/17 03:58:45;;;;;;;1.40;0.70;;;2.30;99.90;;;;;;5053408;28;20479;-65
2021/12/17 04:01:11;;;;;;;1.20;0.70;;;2.30;99.90;;;;;;5053013;28;20068;-65
2021/12/17 04:03:37;;;;;;;3.28;1.08;;;2.30;99.90;;;;;;5053161;28;20032;-66
2021/12/17 04:06:03;;;;;;;3.03;1.00;;;2.30;99.90;;;;;;5053103;28;20069;-65
2021/12/17 04:08:29;;;;;;;2.15;1.00;;;2.30;99.90;;;;;;5053092;28;20491;-65
2021/12/17 04:11:03;;;;;;;4.50;1.00;;;2.30;99.90;;;;;;5052976;28;20025;-65
2021/12/17 04:13:35;;;;;;;2.17;0.70;;;2.30;99.90;;;;;;5052867;28;20110;-66
2021/12/17 04:16:06;;;;;;;3.88;0.90;;;2.30;99.90;;;;;;5052757;28;20084;-66
2021/12/17 04:18:33;;;;;;;2.10;0.90;;;2.30;99.90;;;;;;5052684;28;20035;-66
2021/12/17 04:21:01;;;;;;;4.82;0.88;;;2.30;99.90;;;;;;5052564;28;20025;-66
2021/12/17 04:23:27;;;;;;;3.95;0.90;;;2.30;99.90;;;;;;5052489;28;20029;-66
2021/12/17 04:25:53;;;;;;;2.60;0.88;;;2.30;99.90;;;;;;5052372;28;20488;-66
2021/12/17 04:28:20;;;;;;;3.72;0.95;;;2.40;99.90;;;;;;5052512;28;20029;-66
2021/12/17 04:30:46;;;;;;;1.35;0.73;;;2.40;99.90;;;;;;5050935;28;20440;-66
2021/12/17 04:33:13;;;;;;;3.45;0.90;;;2.30;99.90;;;;;;5052280;28;20517;-66
2021/12/17 04:35:40;;;;;;;2.63;0.80;;;2.40;99.90;;;;;;5052097;28;20035;-66
2021/12/17 04:38:08;;;;;;;1.35;0.77;;;2.30;99.90;;;;;;5052567;28;20112;-66
2021/12/17 04:40:36;;;;;;;2.88;0.90;;;2.30;99.90;;;;;;5052316;28;20025;-66
2021/12/17 04:45:43;;;;;;;3.03;0.85;;;2.30;99.90;;;;;;5052269;28;20116;-66
2021/12/17 04:59:08;;;;;;;1.55;0.90;;;2.30;99.90;;;;;;5052372;28;20417;-65
2021/12/17 05:01:35;;;;;;;3.20;0.90;;;2.30;99.90;;;;;;5051719;28;20553;-65
2021/12/17 05:04:01;;;;;;;1.75;0.70;;;2.20;99.90;;;;;;5052082;28;20076;-66
2021/12/17 05:06:29;;;;;;;1.90;0.80;;;2.20;99.90;;;;;;5050601;28;20040;-66
2021/12/17 05:09:00;;;;;;;1.50;0.93;;;2.20;99.90;;;;;;5052049;28;20068;-66
2021/12/17 05:19:56;;;;;;;1.27;0.90;;;2.00;99.90;;;;;;5069334;28;20082;-66
2021/12/17 05:22:24;;;;;;;3.47;0.77;;;2.00;99.90;;;;;;5055229;28;20086;-65
2021/12/17 05:24:50;;;;;;;0.88;0.70;;;2.00;99.90;;;;;;5051529;28;20044;-65
2021/12/17 05:27:16;;;;;;;1.50;0.73;;;2.10;99.90;;;;;;5051819;28;20056;-65
2021/12/17 05:29:42;;;;;;;1.58;0.70;;;2.10;99.90;;;;;;5051749;28;20044;-66
2021/12/17 05:32:08;;;;;;;1.10;0.80;;;2.20;99.90;;;;;;5051684;28;20482;-65
2021/12/17 05:34:33;;;;;;;2.30;0.85;;;2.20;99.90;;;;;;5051852;28;20043;-65
2021/12/17 05:36:59;;;;;;;1.45;0.80;;;2.30;99.90;;;;;;5050515;28;20404;-64
2021/12/17 05:39:25;;;;;;;1.00;0.70;;;2.30;99.90;;;;;;5051667;28;20473;-62
2021/12/17 05:41:52;;;;;;;1.83;0.85;;;2.70;99.90;;;;;;5051088;28;20118;-67
2021/12/17 05:44:18;;;;;;;3.42;0.73;;;4.90;99.90;;;;;;5051296;28;20029;-64
2021/12/17 05:46:50;;;;;;;0.73;0.63;;;4.90;99.90;;;;;;5054662;28;20057;-69
2021/12/17 05:49:24;;;;;;;0.98;0.70;;;4.30;99.90;;;;;;5055097;28;20025;-70
2021/12/17 05:51:51;;;;;;;0.90;0.60;;;3.90;99.90;;;;;;5051949;28;20108;-68
2021/12/17 05:54:18;;;;;;;2.63;0.70;;;3.60;99.90;;;;;;5054656;28;20013;-70
2021/12/17 05:56:44;;;;;;;1.45;0.82;;;3.40;99.90;;;;;;5052269;28;20120;-69
2021/12/17 05:59:10;;;;;;;3.72;0.70;;;3.30;99.90;;;;;;5053448;28;20033;-69
2021/12/17 06:01:36;;;;;;;1.77;0.68;;;3.30;99.90;;;;;;5053857;28;20033;-65
2021/12/17 06:04:03;;;;;;;1.27;0.70;;;3.20;99.90;;;;;;5054074;28;20029;-64
2021/12/17 06:06:36;;;;;;;2.47;0.60;;;3.20;99.90;;;;;;5054268;28;20079;-64
2021/12/17 06:09:06;;;;;;;1.25;0.57;;;3.10;99.90;;;;;;5052896;28;20032;-64
2021/12/17 06:11:32;;;;;;;0.90;0.60;;;3.10;99.90;;;;;;5054553;28;20170;-64
2021/12/17 06:13:58;;;;;;;1.60;0.63;;;3.10;99.90;;;;;;5055353;28;20025;-63
2021/12/17 06:16:24;;;;;;;2.15;0.52;;;3.10;99.90;;;;;;5053900;28;20032;-64
2021/12/17 06:18:50;;;;;;;1.08;0.70;;;3.00;99.90;;;;;;5052863;28;20025;-64
2021/12/17 06:21:17;;;;;;;2.00;0.85;;;3.00;99.90;;;;;;5053767;28;20021;-64
2021/12/17 06:23:42;;;;;;;2.15;0.82;;;3.10;99.90;;;;;;5034486;28;20457;-64
2021/12/17 06:26:08;;;;;;;0.60;0.60;;;3.10;99.90;;;;;;5034729;28;20045;-65
2021/12/17 06:28:34;;;;;;;0.98;0.60;;;3.10;99.90;;;;;;5034951;28;20042;-64
2021/12/17 06:31:00;;;;;;;1.38;0.60;;;3.10;99.90;;;;;;5035004;28;20029;-65
2021/12/17 06:33:25;;;;;;;0.50;0.50;;;3.20;99.90;;;;;;5035084;28;20104;-64
2021/12/17 06:35:51;;;;;;;1.30;0.65;;;3.20;99.90;;;;;;5034735;28;20116;-63
2021/12/17 06:38:17;;;;;;;1.58;0.70;;;3.10;99.90;;;;;;5034518;28;20021;-63
2021/12/17 06:40:43;;;;;;;1.35;0.70;;;3.10;99.90;;;;;;5034714;28;20115;-63
2021/12/17 06:43:08;;;;;;;0.70;0.70;;;3.10;99.90;;;;;;5034959;28;20474;-64
2021/12/17 06:45:58;;;;;;;1.35;0.70;;;3.10;99.90;;;;;;5034560;28;20460;-64
2021/12/17 06:48:27;;;;;;;1.30;0.60;;;3.00;99.90;;;;;;5034513;28;20029;-65
2021/12/17 06:59:05;;;;;;;2.55;0.80;;;2.80;99.90;;;;;;5034613;28;20033;-64
2021/12/17 07:17:45;;;;;;;3.63;1.60;;;2.90;99.90;;;;;;5034029;28;20037;-66
2021/12/17 07:28:11;;;;;;;2.10;0.60;;;2.60;99.90;;;;;;5051771;28;20104;-69
2021/12/17 07:33:36;;;;;;;1.17;1.00;;;2.70;99.90;;;;;;5053615;28;20028;-69
2021/12/17 07:36:09;;;;;;;0.68;0.60;;;2.70;99.90;;;;;;5053540;28;20083;-69
2021/12/17 07:41:02;;;;;;;2.95;1.15;;;2.60;99.90;;;;;;5053407;28;20115;-75
2021/12/17 07:43:38;;;;;;;1.05;0.70;;;2.80;99.90;;;;;;5053346;28;20103;-68
2021/12/17 07:46:10;;;;;;;1.48;0.80;;;3.10;99.90;;;;;;5052623;28;20025;-70
2021/12/17 07:48:37;;;;;;;1.75;0.80;;;3.10;99.90;;;;;;5053000;28;20100;-70
2021/12/17 07:51:06;;;;;;;1.52;0.63;;;3.20;99.90;;;;;;5052621;28;20384;-71
2021/12/17 07:53:32;;;;;;;1.40;0.75;;;3.10;99.90;;;;;;5052625;28;20032;-66
2021/12/17 07:56:00;;;;;;;0.95;0.80;;;2.90;99.90;;;;;;5052071;28;20123;-67
2021/12/17 07:58:27;;;;;;;0.85;0.60;;;2.80;99.90;;;;;;5052728;28;20021;-65
2021/12/17 08:00:53;;;;;;;1.38;0.73;;;2.80;99.90;;;;;;5052395;28;20036;-65
2021/12/17 08:03:20;;;;;;;1.83;0.82;;;2.60;99.90;;;;;;5052962;28;20025;-66
2021/12/17 08:05:46;;;;;;;1.90;0.60;;;2.60;99.90;;;;;;5052352;28;20048;-66
2021/12/17 08:08:12;;;;;;;5.32;1.10;;;2.50;99.90;;;;;;5052285;28;20029;-64
2021/12/17 08:10:38;;;;;;;0.75;0.70;;;3.40;99.90;;;;;;5052382;28;20554;-63
2021/12/17 08:13:06;;;;;;;1.35;0.85;;;3.80;99.90;;;;;;5053107;28;20025;-63
2021/12/17 08:15:38;;;;;;;1.58;0.80;;;3.60;99.90;;;;;;5052603;28;20033;-63
2021/12/17 08:18:22;;;;;;;1.63;0.98;;;3.30;99.90;;;;;;5053143;28;20484;-63
2021/12/17 08:26:11;;;;;;;3.08;1.00;;;2.70;99.90;;;;;;5052565;28;20029;-61
2021/12/17 08:28:53;;;;;;;3.47;1.00;;;2.50;99.90;;;;;;5052534;28;20032;-61
2021/12/17 08:31:19;;;;;;;3.75;0.70;;;2.30;99.90;;;;;;5052405;28;20021;-61
2021/12/17 08:33:46;;;;;;;5.00;0.70;;;2.10;99.90;;;;;;5052272;28;20040;-61
2021/12/17 08:36:12;;;;;;;4.20;0.90;;;2.10;99.90;;;;;;5052439;28;20079;-61
2021/12/17 08:38:38;;;;;;;2.90;0.88;;;2.00;99.90;;;;;;5051778;28;20032;-61
2021/12/17 08:41:04;;;;;;;1.73;0.80;;;2.00;99.90;;;;;;5051454;28;20020;-61
2021/12/17 08:43:30;;;;;;;2.88;0.80;;;2.00;99.90;;;;;;5051606;28;20059;-61
2021/12/17 08:45:57;;;;;;;5.70;1.23;;;2.00;99.90;;;;;;5051236;28;20060;-61
2021/12/17 08:48:24;;;;;;;2.92;0.90;;;2.00;99.90;;;;;;5051691;28;20049;-62
2021/12/17 08:50:49;;;;;;;0.93;0.80;;;2.00;99.90;;;;;;5051275;28;20025;-64
2021/12/17 08:53:15;;;;;;;2.50;1.13;;;2.20;99.90;;;;;;5051323;28;20366;-64
2021/12/17 08:55:41;;;;;;;5.60;0.85;;;2.30;99.90;;;;;;5051077;28;20044;-64
2021/12/17 08:58:12;;;;;;;1.80;0.90;;;2.30;99.90;;;;;;5052126;28;20029;-66
2021/12/17 09:00:37;;;;;;;1.85;1.10;;;2.40;99.90;;;;;;5052052;28;20087;-65
2021/12/17 09:03:03;;;;;;;2.70;1.20;;;2.50;99.90;;;;;;5052279;28;20470;-65
2021/12/17 09:05:29;;;;;;;4.78;1.10;;;2.40;99.90;;;;;;5051867;28;20033;-65
2021/12/17 09:07:54;;;;;;;3.83;1.15;;;2.20;99.90;;;;;;5051972;28;20068;-65
2021/12/17 09:10:22;;;;;;;3.28;1.10;;;2.30;99.90;;;;;;5051832;28;20514;-65
2021/12/17 09:12:50;;;;;;;4.95;1.13;;;2.30;99.90;;;;;;5051596;28;20017;-65
2021/12/17 09:15:15;;;;;;;3.40;1.00;;;2.30;99.90;;;;;;5052197;28;20032;-66
2021/12/17 09:17:42;;;;;;;2.25;0.90;;;2.30;99.90;;;;;;5052003;28;20032;-65
2021/12/17 09:20:08;;;;;;;2.53;1.05;;;3.20;99.90;;;;;;5051065;28;20025;-67
2021/12/17 09:22:34;;;;;;;3.97;1.30;;;4.10;99.90;;;;;;5051473;28;20025;-66
2021/12/17 09:25:02;;;;;;;3.63;1.40;;;3.70;99.90;;;;;;5051502;28;20041;-66
2021/12/17 09:27:27;;;;;;;4.47;1.40;;;3.20;99.90;;;;;;5051658;28;20037;-66
2021/12/17 09:29:53;;;;;;;2.90;1.40;;;2.90;99.90;;;;;;5051526;28;20021;-65
2021/12/17 09:32:19;;;;;;;3.05;1.38;;;2.60;99.90;;;;;;5051694;28;20075;-65
2021/12/17 09:34:44;;;;;;;3.88;1.60;;;2.40;99.90;;;;;;5051567;28;20025;-65
2021/12/17 09:37:13;;;;;;;5.05;1.67;;;2.20;99.90;;;;;;5051847;28;20028;-64
2021/12/17 09:39:39;;;;;;;5.20;1.50;;;2.10;99.90;;;;;;5048966;28;20425;-66
2021/12/17 09:42:06;;;;;;;5.10;1.60;;;2.00;99.90;;;;;;5051704;28;20029;-66
2021/12/17 09:44:32;;;;;;;4.53;1.58;;;2.00;99.90;;;;;;5051557;28;20503;-65
2021/12/17 09:46:59;;;;;;;3.53;1.58;;;2.00;99.90;;;;;;5051699;28;20065;-66
2021/12/17 09:49:25;;;;;;;6.63;1.80;;;1.90;99.90;;;;;;5051692;28;20024;-66
2021/12/17 09:51:51;;;;;;;7.80;2.22;;;1.80;99.90;;;;;;5051432;28;20037;-65
2021/12/17 09:54:17;;;;;;;9.80;2.58;;;1.80;99.90;;;;;;5051229;28;20017;-66
2021/12/17 09:56:43;;;;;;;10.30;2.22;;;1.80;99.90;;;;;;5050836;28;20405;-65
2021/12/17 09:59:10;;;;;;;6.80;2.05;;;1.80;99.90;;;;;;5051706;28;20037;-66
2021/12/17 10:01:39;;;;;;;4.32;1.40;;;1.80;99.90;;;;;;5051297;28;20108;-65
2021/12/17 10:04:27;;;;;;;3.70;1.33;;;1.70;99.90;;;;;;5051506;28;20029;-65
2021/12/17 10:07:18;;;;;;;4.85;1.40;;;1.70;99.90;;;;;;5051118;28;20036;-65
2021/12/17 10:09:52;;;;;;;2.30;1.02;;;1.70;99.90;;;;;;5051534;28;20104;-65
2021/12/17 10:12:27;;;;;;;3.85;1.08;;;1.60;99.90;;;;;;5051244;28;20041;-65
2021/12/17 10:15:13;;;;;;;3.83;0.90;;;1.60;99.90;;;;;;5051401;28;20423;-65
2021/12/17 10:18:01;;;;;;;2.85;0.80;;;1.60;99.90;;;;;;5051414;28;20025;-65
2021/12/17 10:20:32;;;;;;;1.88;0.82;;;1.60;99.90;;;;;;5051017;28;20473;-65
2021/12/17 10:23:08;;;;;;;3.63;0.80;;;1.60;99.90;;;;;;5051384;28;20440;-65
2021/12/17 10:25:37;;;;;;;2.35;1.13;;;1.60;99.90;;;;;;5051424;28;20060;-65
2021/12/17 10:28:05;;;;;;;2.92;0.85;;;1.60;99.90;;;;;;5050876;28;20499;-65
2021/12/17 10:30:34;;;;;;;2.20;1.08;;;1.60;99.90;;;;;;5051432;28;20109;-64
2021/12/17 10:33:06;;;;;;;1.90;1.10;;;1.60;99.90;;;;;;5054556;28;20394;-65
2021/12/17 10:35:34;;;;;;;2.33;1.10;;;1.60;99.90;;;;;;5054608;28;20059;-65
2021/12/17 10:38:08;;;;;;;3.50;1.20;;;1.60;99.90;;;;;;5054326;28;20634;-65
2021/12/17 10:40:48;;;;;;;1.95;0.90;;;1.70;99.90;;;;;;5054785;28;20033;-65
2021/12/17 10:43:24;;;;;;;2.35;1.00;;;1.90;99.90;;;;;;5052450;28;20021;-65
2021/12/17 10:54:10;;;;;;;4.82;1.20;;;2.10;99.90;;;;;;5053893;28;20071;-64
2021/12/17 10:56:39;;;;;;;2.97;1.10;;;2.10;99.90;;;;;;5054033;28;20405;-65
2021/12/17 10:59:07;;;;;;;4.50;1.05;;;2.20;99.90;;;;;;5054428;28;20546;-63
2021/12/17 11:01:44;;;;;;;2.30;0.98;;;2.60;99.90;;;;;;5054269;28;20108;-65
2021/12/17 11:04:24;;;;;;;3.67;1.10;;;2.60;99.90;;;;;;5053444;28;20029;-65
2021/12/17 11:07:06;;;;;;;7.07;2.13;;;2.60;99.90;;;;;;5053392;28;20040;-65
2021/12/17 11:09:46;;;;;;;5.00;1.00;;;2.50;99.90;;;;;;5053481;28;20500;-66
2021/12/17 11:12:15;;;;;;;;;;;2.40;99.90;;;;;;5052538;28;20558;-66
2021/12/17 11:14:41;;;;;;;3.55;1.27;;;2.40;99.90;;;;;;5050566;28;19909;-66
2021/12/17 11:17:10;;;;;;;2.40;1.00;;;2.40;99.90;;;;;;5053358;28;20100;-65
2021/12/17 11:19:36;;;;;;;3.45;1.20;;;2.30;99.90;;;;;;5053587;28;20025;-66
2021/12/17 11:22:03;;;;;;;2.55;1.00;;;2.30;99.90;;;;;;5053955;28;20499;-66
2021/12/17 11:24:30;;;;;;;2.40;1.00;;;2.30;99.90;;;;;;5053592;28;20029;-66
2021/12/17 11:26:57;;;;;;;2.80;0.88;;;2.30;99.90;;;;;;5053505;28;20029;-66
2021/12/17 11:29:23;;;;;;;5.70;1.20;;;2.30;99.90;;;;;;5053611;28;20040;-66
2021/12/17 11:31:50;;;;;;;3.33;0.77;;;2.30;99.90;;;;;;5053436;28;20044;-65
2021/12/17 11:34:18;;;;;;;2.90;0.95;;;2.30;99.90;;;;;;5053581;28;20489;-67
2021/12/17 11:36:45;;;;;;;4.45;1.25;;;2.30;99.90;;;;;;5052973;28;20066;-67
2021/12/17 11:39:31;;;;;;;3.60;0.90;;;2.30;99.90;;;;;;5053579;28;20021;-65
2021/12/17 11:42:34;;;;;;;3.45;1.00;;;2.30;99.90;;;;;;5052856;28;20032;-65
2021/12/17 11:45:25;;;;;;;2.58;0.98;;;2.30;99.90;;;;;;5053112;28;20029;-65
2021/12/17 11:47:50;;;;;;;3.00;0.80;;;2.30;99.90;;;;;;5052960;28;20048;-63
2021/12/17 11:50:17;;;;;;;3.60;1.10;;;2.30;99.90;;;;;;5053604;28;20028;-64
2021/12/17 11:52:51;;;;;;;3.22;1.08;;;2.30;99.90;;;;;;5053181;28;20032;-62
2021/12/17 11:55:34;;;;;;;2.60;0.98;;;2.30;99.90;;;;;;5053046;28;20104;-62
2021/12/17 11:58:07;;;;;;;3.10;0.90;;;2.30;99.90;;;;;;5052875;28;20037;-61
2021/12/17 12:00:50;;;;;;;3.22;1.50;;;2.30;99.90;;;;;;5052996;28;20033;-61
2021/12/17 12:03:21;;;;;;;2.95;1.00;;;2.50;99.90;;;;;;5053361;28;20032;-61
2021/12/17 12:05:51;;;;;;;3.03;0.90;;;2.70;99.90;;;;;;5052705;28;20120;-61
2021/12/17 12:08:51;;;;;;;5.22;1.17;;;2.60;99.90;;;;;;5052823;28;20064;-61
2021/12/17 12:11:28;;;;;;;2.35;0.80;;;2.70;99.90;;;;;;5052952;28;20057;-62
2021/12/17 12:13:56;;;;;;;38.65;16.00;;;2.70;99.90;;;;;;5052604;28;20485;-62
2021/12/17 12:16:24;;;;;;;157.27;53.15;;;2.60;99.90;;;;;;5052775;28;20025;-62
2021/12/17 12:18:53;;;;;;;131.18;49.20;;;2.60;99.90;;;;;;5052671;28;20090;-62
2021/12/17 12:21:22;;;;;;;51.40;21.55;;;2.60;99.90;;;;;;5052884;28;20055;-63
2021/12/17 12:23:57;;;;;;;22.25;11.45;;;2.60;99.90;;;;;;5051131;28;20054;-64
2021/12/17 12:26:48;;;;;;;10.38;5.25;;;2.60;99.90;;;;;;5052541;28;20086;-63
2021/12/17 12:29:21;;;;;;;4.20;1.70;;;2.60;99.90;;;;;;5052129;28;20496;-63
2021/12/17 12:31:59;;;;;;;4.35;1.63;;;2.60;99.90;;;;;;5052486;28;20051;-63
2021/12/17 12:34:34;;;;;;;3.20;1.30;;;2.60;99.90;;;;;;5052867;28;20107;-66
2021/12/17 12:37:07;;;;;;;1.88;1.20;;;2.60;99.90;;;;;;5051760;28;20025;-64
2021/12/17 12:39:50;;;;;;;2.92;1.40;;;2.60;99.90;;;;;;5052386;28;20036;-65
2021/12/17 12:42:35;;;;;;;7.53;3.53;;;2.60;99.90;;;;;;5052273;28;20025;-65
2021/12/17 12:45:03;;;;;;;4.43;1.38;;;2.90;99.90;;;;;;5052055;28;20051;-64
2021/12/17 12:47:35;;;;;;;3.28;1.30;;;2.90;99.90;;;;;;5052493;28;20052;-65
2021/12/17 12:50:04;;;;;;;3.90;1.23;;;2.70;99.90;;;;;;5051760;28;20401;-65
2021/12/17 12:52:32;;;;;;;4.82;1.52;;;2.60;99.90;;;;;;5051968;28;20025;-65
2021/12/17 12:55:01;;;;;;;2.33;1.25;;;2.40;99.90;;;;;;5051783;28;20359;-66
2021/12/17 12:57:34;;;;;;;2.55;1.00;;;2.30;99.90;;;;;;5051987;28;20029;-66
2021/12/17 13:00:08;;;;;;;3.92;1.02;;;2.20;99.90;;;;;;5050610;28;20021;-67
2021/12/17 13:02:34;;;;;;;2.25;0.90;;;2.10;99.90;;;;;;5051786;28;20104;-65
2021/12/17 13:05:01;;;;;;;1.33;0.80;;;2.10;99.90;;;;;;5051785;28;20160;-66
2021/12/17 13:07:42;;;;;;;4.07;1.10;;;2.10;99.90;;;;;;5051820;28;20029;-66
2021/12/17 13:10:12;;;;;;;4.63;1.17;;;2.00;99.90;;;;;;5051705;28;20025;-65
2021/12/17 13:12:40;;;;;;;3.67;1.00;;;2.50;99.90;;;;;;5051874;28;20116;-68
2021/12/17 13:15:19;;;;;;;1.83;1.00;;;2.90;99.90;;;;;;5050816;28;20468;-67
2021/12/17 13:23:22;;;;;;;2.47;0.90;;;2.50;99.90;;;;;;5051923;28;20017;-63
2021/12/17 13:26:10;;;;;;;1.52;0.82;;;2.30;99.90;;;;;;5050676;28;20033;-63
2021/12/17 13:28:53;;;;;;;1.02;0.93;;;2.20;99.90;;;;;;5051459;28;20420;-63
2021/12/17 13:31:35;;;;;;;1.60;1.10;;;2.20;99.90;;;;;;5051865;28;20025;-64
2021/12/17 13:34:04;;;;;;;2.92;0.90;;;2.20;99.90;;;;;;5051394;28;20071;-64
2021/12/17 13:36:30;;;;;;;3.35;0.93;;;2.40;99.90;;;;;;5051907;28;20129;-64
2021/12/17 13:38:57;;;;;;;2.42;0.93;;;2.30;99.90;;;;;;5051529;28;20529;-64
2021/12/17 13:41:39;;;;;;;2.63;0.82;;;2.30;99.90;;;;;;5051698;28;20025;-64
2021/12/17 13:44:23;;;;;;;1.73;0.90;;;2.20;99.90;;;;;;5051817;28;20021;-64
2021/12/17 13:46:49;;;;;;;1.95;0.63;;;2.20;99.90;;;;;;5051893;28;20094;-65
2021/12/17 13:49:15;;;;;;;1.63;0.80;;;2.40;99.90;;;;;;5051658;28;20025;-64
2021/12/17 13:51:40;;;;;;;2.58;1.20;;;2.20;99.90;;;;;;5051523;28;20103;-64
2021/12/17 13:54:07;;;;;;;3.25;0.85;;;2.20;99.90;;;;;;5051450;28;20098;-64
2021/12/17 13:56:32;;;;;;;2.10;1.17;;;2.20;99.90;;;;;;5051133;28;20045;-65
2021/12/17 13:59:02;;;;;;;3.97;0.82;;;2.10;99.90;;;;;;5051409;28;20532;-64
2021/12/17 14:01:28;;;;;;;3.88;1.10;;;2.10;99.90;;;;;;5051489;28;20433;-64
2021/12/17 14:03:54;;;;;;;1.30;0.85;;;2.10;99.90;;;;;;5051226;28;20067;-64
2021/12/17 14:06:35;;;;;;;2.35;1.05;;;2.10;99.90;;;;;;5053114;28;20060;-64
2021/12/17 14:09:01;;;;;;;;;;;2.10;99.90;;;;;;5055663;28;20035;-64
2021/12/17 14:11:31;;;;;;;2.88;0.90;;;2.10;99.90;;;;;;5055108;28;20392;-63
2021/12/17 14:13:57;;;;;;;1.27;0.90;;;2.10;99.90;;;;;;5054955;28;20116;-64
2021/12/17 14:16:33;;;;;;;3.30;1.08;;;2.10;99.90;;;;;;5055082;28;20108;-64
2021/12/17 14:19:00;;;;;;;2.58;1.17;;;2.10;99.90;;;;;;5054693;28;20489;-64
2021/12/17 14:21:29;;;;;;;1.90;1.10;;;2.10;99.90;;;;;;5054398;28;20071;-64
2021/12/17 14:23:55;;;;;;;3.28;1.13;;;2.10;99.90;;;;;;5054210;28;20594;-64
2021/12/17 14:26:27;;;;;;;2.60;0.80;;;2.10;99.90;;;;;;5054210;28;20037;-64
2021/12/17 14:28:53;;;;;;;2.13;0.90;;;2.10;99.90;;;;;;5054459;28;20423;-64
2021/12/17 14:31:23;;;;;;;3.00;1.20;;;2.20;99.90;;;;;;5054895;28;20054;-64
2021/12/17 14:33:56;;;;;;;2.17;1.10;;;2.20;99.90;;;;;;5054699;28;20028;-64
2021/12/17 14:36:30;;;;;;;3.92;1.00;;;2.20;99.90;;;;;;5054762;28;20029;-64
2021/12/17 14:39:14;;;;;;;1.20;1.10;;;2.20;99.90;;;;;;5054419;28;20033;-64
2021/12/17 14:41:50;;;;;;;4.10;1.48;;;2.20;99.90;;;;;;5054596;28;20017;-64
2021/12/17 14:44:48;;;;;;;5.20;1.20;;;2.20;99.90;;;;;;5054042;28;20025;-64
2021/12/17 15:03:42;;;;;;;1.02;0.90;;;2.20;99.90;;;;;;5053387;28;20029;-63
2021/12/17 15:06:15;;;;;;;2.45;1.10;;;2.30;99.90;;;;;;5053414;28;20041;-64
2021/12/17 15:08:42;;;;;;;0.75;0.68;;;2.30;99.90;;;;;;5053896;28;20453;-63
2021/12/17 15:11:43;;;;;;;2.53;1.05;;;2.30;99.90;;;;;;5053222;28;20029;-63
2021/12/17 15:14:02;;;;;;;3.33;0.85;;;2.30;99.90;;;;;;5052714;28;20031;-63
2021/12/17 15:16:28;;;;;;;2.97;1.23;;;2.30;99.90;;;;;;5052924;28;20108;-63
2021/12/17 15:18:54;;;;;;;1.08;0.88;;;2.30;99.90;;;;;;5051989;28;20056;-63
2021/12/17 15:21:19;;;;;;;2.13;0.80;;;2.30;99.90;;;;;;5052742;28;20108;-63
2021/12/17 15:23:45;;;;;;;3.72;1.05;;;2.20;99.90;;;;;;5052465;28;20588;-64
2021/12/17 15:26:11;;;;;;;4.05;1.10;;;2.20;99.90;;;;;;5052704;28;20116;-63
2021/12/17 15:28:36;;;;;;;2.10;0.90;;;2.20;99.90;;;;;;5053016;28;20021;-64
2021/12/17 15:31:06;;;;;;;1.60;0.80;;;2.30;99.90;;;;;;5053327;28;20116;-64
2021/12/17 15:33:34;;;;;;;3.10;1.10;;;2.20;99.90;;;;;;5050287;28;20032;-64
2021/12/17 15:36:00;;;;;;;1.63;0.93;;;2.30;99.90;;;;;;5052788;28;20749;-64
2021/12/17 15:38:25;;;;;;;2.65;1.02;;;2.20;99.90;;;;;;5052981;28;20044;-64
2021/12/17 15:40:52;;;;;;;1.58;1.30;;;2.30;99.90;;;;;;5053538;28;20025;-64
2021/12/17 15:43:20;;;;;;;3.17;0.90;;;2.30;99.90;;;;;;5053532;28;20037;-64
2021/12/17 15:45:47;;;;;;;1.98;0.93;;;2.30;99.90;;;;;;5053222;28;20037;-64
2021/12/17 15:48:16;;;;;;;1.15;0.80;;;2.30;99.90;;;;;;5053357;28;20389;-64
2021/12/17 15:50:42;;;;;;;0.70;0.70;;;2.30;99.90;;;;;;5053239;28;20039;-65
2021/12/17 15:53:10;;;;;;;0.80;0.80;;;2.30;99.90;;;;;;5053119;28;20100;-65
2021/12/17 15:55:36;;;;;;;1.58;0.80;;;2.30;99.90;;;;;;5053065;28;20040;-65
2021/12/17 15:58:02;;;;;;;1.00;0.80;;;2.20;99.90;;;;;;5053355;28;20151;-65
2021/12/17 16:00:34;;;;;;;1.10;0.82;;;2.20;99.90;;;;;;5053433;28;20021;-65
2021/12/17 16:03:01;;;;;;;1.02;0.85;;;2.20;99.90;;;;;;5053138;28;20100;-66
2021/12/17 16:05:27;;;;;;;1.27;0.73;;;2.20;99.90;;;;;;5052902;28;20035;-65
2021/12/17 16:07:54;;;;;;;0.80;0.80;;;2.30;99.90;;;;;;5053200;28;20104;-65
2021/12/17 16:18:43;;;;;;;1.10;1.00;;;2.40;99.90;;;;;;5053096;28;20114;-65
2021/12/17 16:21:10;;;;;;;1.05;0.88;;;2.50;99.90;;;;;;5053005;28;20033;-65
2021/12/17 16:23:48;;;;;;;0.60;0.60;;;2.50;99.90;;;;;;5043145;28;20029;-66
2021/12/17 16:26:16;;;;;;;1.08;0.80;;;2.60;99.90;;;;;;5032625;28;20033;-65
2021/12/17 16:28:47;;;;;;;1.80;0.90;;;2.60;99.90;;;;;;5032297;28;20478;-65
2021/12/17 16:31:31;;;;;;;1.42;0.77;;;2.60;99.90;;;;;;5032743;28;20452;-65
2021/12/17 16:34:02;;;;;;;0.85;0.70;;;2.60;99.90;;;;;;5033626;28;20026;-65
2021/12/17 16:36:33;;;;;;;0.70;0.70;;;2.50;99.90;;;;;;5032951;28;20029;-65
2021/12/17 16:38:59;;;;;;;2.33;0.80;;;2.50;99.90;;;;;;5032865;28;20030;-65
2021/12/17 16:41:25;;;;;;;1.15;0.80;;;2.50;99.90;;;;;;5032454;28;20022;-65
2021/12/17 16:43:59;;;;;;;0.60;0.60;;;2.50;99.90;;;;;;5032283;28;20478;-66
2021/12/17 16:47:01;;;;;;;0.80;0.80;;;2.50;99.90;;;;;;5032312;28;20033;-66
2021/12/17 16:49:18;;;;;;;1.25;0.80;;;2.50;99.90;;;;;;5032142;28;20037;-66